Time;durP1;ratioP1;P1;durP2;ratioP2;P2;SDS_P1;SDS_P2;PMS_P1;PMS_P2;Temp;Humidity;BMP_temperature;BMP_pressure;BME280_temperature;BME280_humidity;BME280_pressure;Samples;Min_cycle;Max_cycle;Signal;HPM_P1;HPM_P2
2021/04/15 00:01:22;;;;;;;24.45;18.25;;;;;;;10.54;60.54;99020.47;1789993;79;21142;-44
2021/04/15 00:03:50;;;;;;;24.47;19.82;;;;;;;10.49;60.47;99027.56;1782323;79;21154;-44
2021/04/15 00:06:27;;;;;;;24.23;19.25;;;;;;;10.41;60.47;99021.25;1783875;79;26996;-45
2021/04/15 00:08:58;;;;;;;26.87;20.62;;;;;;;10.32;60.55;99016.10;1778588;79;21017;-45
2021/04/15 00:11:31;;;;;;;27.52;21.17;;;;;;;10.21;60.78;99021.96;1776833;79;21159;-45
2021/04/15 00:14:00;;;;;;;32.70;24.72;;;;;;;10.15;61.01;99025.30;1779418;79;20996;-45
2021/04/15 00:16:30;;;;;;;29.60;23.75;;;;;;;10.07;61.39;99026.35;1771393;79;21396;-45
2021/04/15 00:19:00;;;;;;;31.40;23.38;;;;;;;9.98;61.66;99026.58;1795577;79;21653;-45
2021/04/15 00:21:30;;;;;;;27.60;22.70;;;;;;;9.91;61.92;99025.13;1793759;79;21048;-45
2021/04/15 00:23:58;;;;;;;29.27;21.15;;;;;;;9.83;62.08;99030.98;1794551;79;21195;-45
2021/04/15 00:26:27;;;;;;;26.30;20.17;;;;;;;9.80;61.98;99030.37;1777342;79;21593;-45
2021/04/15 00:28:57;;;;;;;22.13;17.95;;;;;;;9.82;61.79;99026.73;1767708;79;21044;-45
2021/04/15 00:31:26;;;;;;;23.47;18.10;;;;;;;9.83;62.10;99025.58;1773610;79;21190;-45
2021/04/15 00:33:54;;;;;;;21.77;18.27;;;;;;;9.81;62.17;99024.38;1772169;79;21321;-44
2021/04/15 00:36:26;;;;;;;23.65;19.40;;;;;;;9.77;62.08;99022.98;1781267;79;21391;-45
2021/04/15 00:38:55;;;;;;;25.80;19.87;;;;;;;9.72;62.15;99020.58;1768189;80;21057;-45
2021/04/15 00:41:23;;;;;;;30.17;21.60;;;;;;;9.68;62.12;99021.66;1727509;82;21220;-45
2021/04/15 00:43:53;;;;;;;19.77;16.67;;;;;;;9.64;61.88;99020.23;1772816;79;21759;-45
2021/04/15 00:46:48;;;;;;;28.20;21.65;;;;;;;9.58;61.97;99019.73;1773373;79;23793;-45
2021/04/15 00:49:35;;;;;;;28.12;21.10;;;;;;;9.50;62.00;99011.87;1767964;79;21179;-45
2021/04/15 00:52:08;;;;;;;28.65;19.85;;;;;;;9.39;62.09;99013.02;1772227;79;21045;-45
2021/04/15 00:54:47;;;;;;;24.23;19.82;;;;;;;9.31;62.00;99009.20;1777256;79;21128;-45
2021/04/15 00:57:23;;;;;;;25.40;20.12;;;;;;;9.26;61.92;99005.44;1780326;79;21190;-44
2021/04/15 00:59:51;;;;;;;26.77;21.37;;;;;;;9.19;62.05;99001.27;1787015;79;21710;-45
2021/04/15 01:02:22;;;;;;;28.47;21.40;;;;;;;9.14;61.96;98999.08;1776455;79;21182;-45
2021/04/15 01:04:58;;;;;;;30.95;22.52;;;;;;;9.08;62.19;99001.85;1751768;79;21732;-45
2021/04/15 01:07:27;;;;;;;29.98;22.00;;;;;;;9.03;62.74;98999.44;1778145;79;21609;-45
2021/04/15 01:09:57;;;;;;;26.90;20.32;;;;;;;8.98;62.92;98994.88;1783223;79;21064;-44
2021/04/15 01:13:14;;;;;;;21.57;18.30;;;;;;;8.98;62.82;98998.94;1778008;79;21311;-45
2021/04/15 01:16:18;;;;;;;30.08;21.70;;;;;;;9.01;62.77;98996.30;1771170;80;21163;-45
2021/04/15 01:19:20;;;;;;;32.00;21.55;;;;;;;9.00;62.83;98992.05;1778683;79;21184;-44
2021/04/15 01:22:29;;;;;;;34.00;22.95;;;;;;;8.93;63.69;98991.91;1804246;79;21472;-45
2021/04/15 01:25:45;;;;;;;31.75;23.10;;;;;;;8.87;63.77;98983.07;1792245;79;21157;-45
2021/04/15 01:28:25;;;;;;;29.02;22.40;;;;;;;8.82;64.00;98992.25;1789461;79;21703;-45
2021/04/15 01:30:58;;;;;;;34.55;24.05;;;;;;;8.77;64.22;98987.13;1804849;79;21198;-45
2021/04/15 01:34:59;;;;;;;30.10;21.45;;;;;;;8.80;64.10;98983.73;1813852;76;22351;-44
2021/04/15 01:37:53;;;;;;;29.77;23.60;;;;;;;8.68;63.80;98981.95;1795463;79;20976;-44
2021/04/15 01:40:28;;;;;;;34.95;25.20;;;;;;;8.66;64.26;98980.75;1802042;79;21185;-44
2021/04/15 01:43:06;;;;;;;29.85;22.45;;;;;;;8.62;64.95;98979.87;1813662;79;21051;-43
2021/04/15 01:45:34;;;;;;;32.08;21.93;;;;;;;8.34;64.85;98930.67;1808521;79;21628;-44
2021/04/15 01:48:14;;;;;;;29.90;23.73;;;;;;;8.70;64.69;98982.95;1799828;79;21015;-44
2021/04/15 01:50:57;;;;;;;29.30;22.02;;;;;;;8.74;64.90;98981.09;1801105;79;21027;-44
2021/04/15 01:53:29;;;;;;;33.02;22.75;;;;;;;8.74;64.85;98975.69;1800914;79;21362;-44
2021/04/15 01:56:21;;;;;;;29.48;22.35;;;;;;;8.72;64.61;98974.69;1810871;79;21613;-44
2021/04/15 01:59:09;;;;;;;29.12;23.77;;;;;;;8.73;64.30;98975.47;1809478;79;21293;-44
2021/04/15 02:01:46;;;;;;;32.55;23.98;;;;;;;8.71;64.74;98969.66;1796550;79;21171;-44
2021/04/15 02:04:18;;;;;;;32.58;23.45;;;;;;;8.64;65.19;98965.45;1791238;79;21173;-44
2021/04/15 02:06:51;;;;;;;31.35;23.05;;;;;;;8.62;65.33;98971.77;1814156;79;21371;-44
2021/04/15 02:09:20;;;;;;;30.95;22.30;;;;;;;8.59;65.28;98966.52;1796966;79;21456;-44
2021/04/15 02:12:05;;;;;;;29.00;22.30;;;;;;;8.57;64.96;98963.94;1793367;79;21130;-43
2021/04/15 02:14:35;;;;;;;32.70;23.75;;;;;;;8.54;64.56;98968.16;1759088;79;21138;-44
2021/04/15 02:17:05;;;;;;;31.12;23.45;;;;;;;8.48;64.45;98962.81;1802563;79;21613;-44
2021/04/15 02:19:41;;;;;;;29.18;22.48;;;;;;;8.47;64.52;98961.83;1777950;79;22579;-44
2021/04/15 02:22:34;;;;;;;29.15;22.30;;;;;;;8.47;64.39;98954.48;1805558;79;20933;-44
2021/04/15 02:25:10;;;;;;;27.37;22.65;;;;;;;8.54;64.33;98953.86;1806140;79;21585;-44
2021/04/15 02:27:49;;;;;;;31.60;23.02;;;;;;;8.58;64.37;98958.19;1785081;79;21204;-44
2021/04/15 02:30:25;;;;;;;29.67;22.85;;;;;;;8.60;64.24;98954.58;1794887;78;21134;-44
2021/04/15 02:33:19;;;;;;;32.00;23.18;;;;;;;8.59;64.29;98956.28;1784075;79;21680;-44
2021/04/15 02:35:50;;;;;;;35.05;23.67;;;;;;;8.59;64.56;98953.58;1786253;78;21043;-44
2021/04/15 02:38:22;;;;;;;30.10;22.27;;;;;;;8.57;64.63;98953.92;1784953;79;21693;-44
2021/04/15 02:40:57;;;;;;;30.00;23.55;;;;;;;8.57;64.69;98954.48;1805975;79;21162;-45
2021/04/15 02:43:43;;;;;;;32.33;24.52;;;;;;;8.55;65.28;98960.83;1804172;78;21210;-44
2021/04/15 02:46:26;;;;;;;28.98;22.75;;;;;;;8.52;65.58;98949.39;1795693;79;21205;-45
2021/04/15 02:48:57;;;;;;;26.77;21.20;;;;;;;8.53;65.72;98956.34;1722054;81;21192;-44
2021/04/15 02:51:30;;;;;;;29.25;22.62;;;;;;;8.58;65.85;98954.70;1759376;81;21145;-44
2021/04/15 02:54:20;;;;;;;32.55;23.85;;;;;;;8.58;66.21;98950.66;1810680;79;21151;-44
2021/04/15 02:56:52;;;;;;;29.70;23.30;;;;;;;8.55;66.45;98946.75;1792326;79;21146;-44
2021/04/15 02:59:31;;;;;;;29.42;22.27;;;;;;;8.56;67.03;98946.19;1807329;79;21187;-44
2021/04/15 03:02:08;;;;;;;29.98;23.55;;;;;;;8.54;67.44;98951.16;1805905;79;21174;-44
2021/04/15 03:04:39;;;;;;;32.75;23.73;;;;;;;8.52;67.75;98948.80;1807771;79;21170;-44
2021/04/15 03:07:07;;;;;;;29.02;22.70;;;;;;;8.51;67.70;98947.83;1805939;79;21209;-44
2021/04/15 03:09:35;;;;;;;27.60;20.77;;;;;;;8.57;67.61;98950.44;1800617;79;21146;-44
2021/04/15 03:12:13;;;;;;;29.00;23.10;;;;;;;8.66;67.65;98956.43;1782684;80;22048;-45
2021/04/15 03:14:54;;;;;;;28.02;22.75;;;;;;;8.72;67.69;98952.28;1794719;79;22280;-44
2021/04/15 03:17:23;;;;;;;29.40;22.95;;;;;;;8.71;67.87;98954.80;1782898;79;21158;-45
2021/04/15 03:19:56;;;;;;;27.75;22.77;;;;;;;8.69;67.86;98950.30;1803442;79;21173;-44
2021/04/15 03:22:38;;;;;;;32.33;23.98;;;;;;;8.67;67.77;98955.27;1797964;78;21189;-44
2021/04/15 03:25:07;;;;;;;35.15;25.20;;;;;;;8.67;67.65;98959.32;1808631;79;21970;-44
2021/04/15 03:28:08;;;;;;;34.03;24.67;;;;;;;8.64;67.85;98966.80;1785569;79;21162;-44
2021/04/15 03:30:54;;;;;;;27.02;20.82;;;;;;;8.61;68.00;98965.61;1778569;79;21027;-44
2021/04/15 03:33:54;;;;;;;27.75;22.27;;;;;;;8.64;67.83;98968.16;1801947;78;21324;-45
2021/04/15 03:36:32;;;;;;;30.52;22.82;;;;;;;8.72;67.32;98968.50;1787704;79;21446;-44
2021/04/15 03:39:07;;;;;;;29.57;23.10;;;;;;;8.74;67.41;98967.58;1806260;79;21187;-44
2021/04/15 03:41:44;;;;;;;32.33;22.48;;;;;;;8.79;67.37;98963.25;1753006;80;21132;-44
2021/04/15 03:44:22;;;;;;;27.58;22.67;;;;;;;8.80;67.55;98965.38;1773805;80;21075;-44
2021/04/15 03:47:01;;;;;;;30.10;22.17;;;;;;;8.74;67.73;98960.83;1755386;81;21184;-44
2021/04/15 03:49:38;;;;;;;33.15;24.05;;;;;;;8.71;67.79;98956.91;1758566;80;21171;-44
2021/04/15 03:52:28;;;;;;;30.65;23.75;;;;;;;8.74;67.65;98962.18;1750197;81;21198;-44
2021/04/15 03:55:20;;;;;;;30.68;23.40;;;;;;;8.78;67.45;98966.30;1731171;81;21990;-44
2021/04/15 03:58:01;;;;;;;31.15;22.55;;;;;;;8.88;67.51;98963.80;1832819;78;22713;-44
2021/04/15 04:00:34;;;;;;;29.60;23.75;;;;;;;8.84;67.59;98967.02;1734132;80;21360;-44
2021/04/15 04:03:07;;;;;;;32.00;24.85;;;;;;;8.81;67.78;98969.66;1735632;82;22117;-44
2021/04/15 04:05:41;;;;;;;29.63;23.87;;;;;;;8.77;68.04;98968.78;1722543;82;20964;-44
2021/04/15 04:08:20;;;;;;;30.75;24.30;;;;;;;8.75;68.05;98971.86;1761180;80;20985;-44
2021/04/15 04:10:48;;;;;;;31.25;25.95;;;;;;;8.74;68.04;98972.98;1724485;82;21058;-44
2021/04/15 04:13:36;;;;;;;30.68;24.60;;;;;;;8.72;68.18;98973.91;1724817;82;21004;-44
2021/04/15 04:16:31;;;;;;;29.25;22.62;;;;;;;8.74;68.47;98970.29;1754552;80;22250;-44
2021/04/15 04:19:34;;;;;;;35.73;25.30;;;;;;;8.79;69.04;98974.06;1714058;82;21234;-44
2021/04/15 04:22:22;;;;;;;31.50;22.67;;;;;;;8.81;69.40;98969.66;1738127;80;21692;-44
2021/04/15 04:25:14;;;;;;;32.73;25.10;;;;;;;8.84;69.59;98973.77;1755551;80;21750;-44
2021/04/15 04:28:00;;;;;;;32.00;25.52;;;;;;;8.87;69.79;98972.26;1761099;81;21371;-44
2021/04/15 04:30:52;;;;;;;28.65;22.65;;;;;;;8.90;70.04;98969.65;1727927;82;21355;-44
2021/04/15 04:33:24;;;;;;;29.00;22.37;;;;;;;9.02;70.11;98968.69;1715667;82;21218;-44
2021/04/15 04:35:53;;;;;;;30.37;23.80;;;;;;;9.13;70.02;98966.97;1732347;81;21166;-44
2021/04/15 04:38:22;;;;;;;29.50;23.65;;;;;;;9.27;69.92;98963.73;1668558;82;21515;-44
2021/04/15 04:40:54;;;;;;;33.33;25.43;;;;;;;9.36;69.92;98966.41;1725812;82;21189;-41
2021/04/15 04:43:42;;;;;;;30.15;24.43;;;;;;;9.44;69.90;98961.32;1714954;82;21305;-43
2021/04/15 04:46:46;;;;;;;31.40;24.82;;;;;;;9.20;70.01;98923.05;1722459;82;21881;-43
2021/04/15 04:49:26;;;;;;;31.60;22.98;;;;;;;9.50;70.13;98965.86;1720998;82;21696;-43
2021/04/15 04:52:02;;;;;;;27.48;22.65;;;;;;;9.55;70.14;98970.41;1730819;82;21214;-43
2021/04/15 04:54:31;;;;;;;31.25;23.18;;;;;;;9.62;70.09;98968.40;1726225;82;21198;-43
2021/04/15 04:57:11;;;;;;;31.20;23.35;;;;;;;9.68;70.10;98972.37;1707707;82;21338;-43
2021/04/15 04:59:52;;;;;;;30.00;23.12;;;;;;;9.73;70.02;98974.74;1716781;82;21191;-45
2021/04/15 05:02:20;;;;;;;34.23;25.27;;;;;;;9.78;69.94;98969.02;1716668;82;21210;-45
2021/04/15 05:04:49;;;;;;;28.42;22.87;;;;;;;9.80;70.06;98968.10;1729140;82;21209;-45
2021/04/15 05:07:24;;;;;;;29.05;22.67;;;;;;;9.84;70.12;98967.58;1729470;81;21589;-45
2021/04/15 05:09:52;;;;;;;31.65;23.02;;;;;;;9.95;70.05;98960.41;1715891;83;21367;-45
2021/04/15 05:12:28;;;;;;;28.95;24.47;;;;;;;10.09;69.74;98963.11;1730005;82;21071;-44
2021/04/15 05:14:57;;;;;;;29.20;24.35;;;;;;;10.12;69.69;98965.09;1733637;82;21314;-44
2021/04/15 05:17:32;;;;;;;32.45;24.63;;;;;;;10.17;69.63;98962.08;1716098;82;21194;-43
2021/04/15 05:20:16;;;;;;;31.52;25.70;;;;;;;10.21;69.68;98962.94;1716490;82;21138;-43
2021/04/15 05:22:50;;;;;;;27.75;23.40;;;;;;;10.22;69.82;98958.48;1729536;82;21616;-43
2021/04/15 05:26:16;;;;;;;31.93;23.62;;;;;;;10.31;69.98;98955.52;1822453;78;22429;-43
2021/04/15 05:28:56;;;;;;;32.83;23.15;;;;;;;10.51;69.93;98958.28;1823348;78;22732;-42
2021/04/15 05:31:26;;;;;;;32.50;23.30;;;;;;;10.54;69.99;98962.20;1796537;78;21315;-44
2021/04/15 05:33:58;;;;;;;30.65;25.32;;;;;;;10.64;69.88;98960.20;1795598;78;21199;-43
2021/04/15 05:36:37;;;;;;;34.05;24.72;;;;;;;10.75;69.52;98964.58;1792209;79;21329;-43
2021/04/15 05:39:09;;;;;;;34.78;25.08;;;;;;;10.82;69.14;98976.88;1770207;78;21036;-41
2021/04/15 05:41:52;;;;;;;32.58;22.55;;;;;;;10.90;68.87;98966.30;1799215;78;21039;-43
2021/04/15 05:44:43;;;;;;;28.30;21.87;;;;;;;11.07;68.57;98966.30;1793673;78;21039;-43
2021/04/15 05:47:16;;;;;;;;;;;;;;;11.23;67.66;98964.72;1739719;80;22075;-43
2021/04/15 05:49:51;;;;;;;29.92;22.93;;;;;;;11.29;67.29;98966.70;1744860;82;20199;-42
2021/04/15 05:52:38;;;;;;;31.00;24.50;;;;;;;11.32;67.58;98965.98;1758671;80;21503;-43
2021/04/15 05:55:14;;;;;;;27.15;22.42;;;;;;;11.49;67.36;98968.64;1764734;80;21039;-43
2021/04/15 05:57:46;;;;;;;29.00;24.10;;;;;;;11.61;66.46;98966.22;1760334;80;21063;-43
2021/04/15 06:00:19;;;;;;;28.05;22.60;;;;;;;11.67;66.24;98968.20;1745758;80;21363;-43
2021/04/15 06:03:19;;;;;;;26.40;21.00;;;;;;;11.83;66.26;98969.91;1752122;80;21570;-44
2021/04/15 06:06:04;;;;;;;31.60;22.10;;;;;;;11.98;66.04;98965.56;1718060;80;21194;-43
2021/04/15 06:08:38;;;;;;;23.60;18.55;;;;;;;12.07;65.62;98959.22;1745712;82;21617;-43
2021/04/15 06:11:48;;;;;;;25.23;20.15;;;;;;;12.16;64.96;98963.73;1746037;82;21438;-44
2021/04/15 06:14:27;;;;;;;31.50;21.48;;;;;;;12.22;64.87;98964.16;1749647;80;21477;-44
2021/04/15 06:17:15;;;;;;;29.95;21.57;;;;;;;12.30;65.13;98961.67;1726443;81;21202;-44
2021/04/15 06:19:46;;;;;;;24.15;20.12;;;;;;;12.41;64.77;98962.52;1734418;81;21153;-44
2021/04/15 06:22:19;;;;;;;25.45;20.65;;;;;;;12.43;63.89;98965.64;1743840;80;21186;-44
2021/04/15 06:24:52;;;;;;;26.73;21.00;;;;;;;12.42;63.96;98965.44;1755862;81;21648;-45
2021/04/15 06:27:20;;;;;;;27.20;21.00;;;;;;;12.49;63.91;98962.73;1750420;81;21712;-45
2021/04/15 06:30:02;;;;;;;29.20;21.45;;;;;;;12.61;63.39;98965.14;1736250;81;21184;-45
2021/04/15 06:32:44;;;;;;;27.55;21.12;;;;;;;12.71;63.27;98966.92;1728638;81;21044;-45
2021/04/15 06:35:23;;;;;;;28.52;20.90;;;;;;;12.79;63.14;98961.69;1787041;79;21202;-45
2021/04/15 06:37:57;;;;;;;28.85;20.90;;;;;;;12.83;62.88;98963.27;1747909;81;21153;-45
2021/04/15 06:40:58;;;;;;;28.15;21.85;;;;;;;12.89;62.73;98959.02;1759081;80;22483;-45
2021/04/15 06:44:08;;;;;;;23.73;20.23;;;;;;;12.94;62.65;98962.72;1746181;80;21248;-45
2021/04/15 06:46:48;;;;;;;28.05;20.85;;;;;;;12.94;62.55;98960.00;1749933;80;21210;-45
2021/04/15 06:50:06;;;;;;;29.70;22.15;;;;;;;12.94;62.32;98955.14;1773471;79;21179;-45
2021/04/15 06:53:11;;;;;;;26.40;20.17;;;;;;;12.92;62.11;98959.63;1790255;78;21691;-45
2021/04/15 06:56:25;;;;;;;31.23;21.27;;;;;;;12.90;62.35;98968.73;1731894;82;23529;-45
2021/04/15 06:59:07;;;;;;;30.97;21.25;;;;;;;13.00;61.85;98964.49;1772729;79;21135;-45
2021/04/15 07:01:55;;;;;;;28.20;20.65;;;;;;;13.09;61.81;98968.98;1744287;82;21218;-45
2021/04/15 07:04:28;;;;;;;27.10;21.30;;;;;;;13.15;62.03;98959.31;1730028;82;21094;-44
2021/04/15 07:07:08;;;;;;;25.72;20.57;;;;;;;13.28;61.58;98962.44;1802030;78;21183;-44
2021/04/15 07:09:51;;;;;;;29.10;21.82;;;;;;;13.34;61.44;98961.67;1790796;79;21261;-44
2021/04/15 07:12:48;;;;;;;28.80;21.57;;;;;;;13.35;61.16;98958.38;1759424;78;21147;-45
2021/04/15 07:15:31;;;;;;;28.23;21.55;;;;;;;13.39;60.98;98962.66;1790521;78;21171;-45
2021/04/15 07:18:13;;;;;;;26.73;21.35;;;;;;;13.41;60.42;98968.48;1785738;79;21720;-44
2021/04/15 07:21:23;;;;;;;31.80;23.07;;;;;;;13.09;60.61;98919.99;1812057;78;21173;-45
2021/04/15 07:24:20;;;;;;;28.47;21.00;;;;;;;13.39;60.56;98965.38;1800834;79;21205;-45
2021/04/15 07:27:23;;;;;;;23.30;20.23;;;;;;;13.40;60.37;98958.77;1801501;79;21186;-44
2021/04/15 07:30:29;;;;;;;25.75;20.90;;;;;;;13.46;60.14;98963.23;1793617;79;21038;-44
2021/04/15 07:33:24;;;;;;;29.98;20.92;;;;;;;13.47;60.36;98962.85;1796302;78;21136;-45
2021/04/15 07:36:37;;;;;;;23.12;18.90;;;;;;;13.49;60.14;98956.45;1778777;79;21024;-44
2021/04/15 07:39:37;;;;;;;24.80;19.87;;;;;;;13.49;59.80;98959.75;1783290;79;22235;-45
2021/04/15 07:42:34;;;;;;;24.80;18.30;;;;;;;13.47;59.51;98957.98;1809067;79;21153;-45
2021/04/15 07:45:21;;;;;;;25.70;19.67;;;;;;;13.43;59.57;98959.93;1810481;78;21445;-45
2021/04/15 07:48:13;;;;;;;21.57;17.62;;;;;;;13.38;59.28;98965.18;1783694;79;21046;-45
2021/04/15 07:50:48;;;;;;;24.07;19.32;;;;;;;13.44;59.11;98969.08;1812280;79;21181;-44
2021/04/15 07:54:00;;;;;;;22.82;19.25;;;;;;;13.49;58.46;98963.25;1804021;79;21373;-45
2021/04/15 07:57:15;;;;;;;23.60;18.02;;;;;;;13.56;58.20;98961.09;1799622;78;21209;-45
2021/04/15 08:00:43;;;;;;;23.73;19.52;;;;;;;13.57;58.49;98962.66;1812898;79;20944;-45
2021/04/15 08:04:01;;;;;;;19.98;17.05;;;;;;;13.58;58.00;98966.17;1808686;79;21627;-45
2021/04/15 08:06:36;;;;;;;22.52;18.73;;;;;;;13.55;57.66;98969.09;1799784;78;21143;-45
2021/04/15 08:09:43;;;;;;;23.50;19.73;;;;;;;13.56;57.69;98965.19;1791124;78;21356;-45
2021/04/15 08:12:55;;;;;;;23.27;20.00;;;;;;;13.60;58.12;98961.12;1788170;79;21171;-44
2021/04/15 08:15:56;;;;;;;21.77;18.55;;;;;;;13.65;58.14;98960.12;1791343;78;21068;-44
2021/04/15 08:18:44;;;;;;;23.10;20.23;;;;;;;13.71;58.22;98963.24;1804513;79;21138;-44
2021/04/15 08:21:56;;;;;;;26.50;18.77;;;;;;;13.78;58.11;98959.95;1750899;79;21178;-45
2021/04/15 08:24:36;;;;;;;25.50;19.40;;;;;;;13.89;58.27;98960.70;1748306;81;21417;-44
2021/04/15 08:27:49;;;;;;;21.55;18.32;;;;;;;14.05;57.47;98957.56;1730204;82;21780;-45
2021/04/15 08:30:52;;;;;;;21.87;18.42;;;;;;;14.16;56.97;98955.61;1773057;78;21206;-45
2021/04/15 08:33:46;;;;;;;26.00;18.82;;;;;;;14.22;56.74;98955.99;1785702;79;21178;-45
2021/04/15 08:36:38;;;;;;;24.32;20.02;;;;;;;14.24;56.66;98959.09;1785130;79;21447;-45
2021/04/15 08:39:55;;;;;;;23.62;18.73;;;;;;;14.21;56.85;98947.61;1791916;79;21209;-44
2021/04/15 08:42:49;;;;;;;24.15;19.92;;;;;;;14.38;57.19;98958.33;1808630;78;21636;-44
2021/04/15 08:45:37;;;;;;;22.50;18.75;;;;;;;14.55;56.61;98958.84;1794056;79;21170;-45
2021/04/15 08:48:36;;;;;;;22.37;18.90;;;;;;;14.68;56.01;98953.12;1791142;79;22187;-45
2021/04/15 08:51:47;;;;;;;23.77;20.15;;;;;;;14.84;55.78;98954.83;1807350;79;21562;-45
2021/04/15 08:54:33;;;;;;;25.65;19.32;;;;;;;15.00;55.08;98956.50;1798114;78;21551;-45
2021/04/15 08:57:39;;;;;;;25.68;20.10;;;;;;;14.78;54.68;98912.74;1807298;78;21212;-45
2021/04/15 09:00:42;;;;;;;24.23;18.87;;;;;;;15.12;54.55;98954.66;1803761;78;21225;-45
2021/04/15 09:03:38;;;;;;;28.25;19.30;;;;;;;15.18;54.14;98953.66;1819391;77;21169;-44
2021/04/15 09:06:27;;;;;;;23.52;18.35;;;;;;;15.26;53.37;98951.65;1802020;79;21178;-44
2021/04/15 09:09:22;;;;;;;24.23;18.70;;;;;;;15.31;53.57;98952.00;1807924;78;22659;-44
2021/04/15 09:12:06;;;;;;;22.50;18.10;;;;;;;15.42;53.34;98946.47;1803491;79;20993;-45
2021/04/15 09:15:18;;;;;;;23.10;18.75;;;;;;;15.46;52.98;98952.69;1798208;79;21150;-44
2021/04/15 09:18:02;;;;;;;23.65;19.48;;;;;;;15.46;52.84;98952.69;1776533;79;21020;-44
2021/04/15 09:20:50;;;;;;;22.25;18.57;;;;;;;15.45;52.86;98942.34;1792111;78;21147;-44
2021/04/15 09:23:39;;;;;;;23.45;18.60;;;;;;;15.53;53.12;98937.65;1797594;79;21185;-44
2021/04/15 09:26:56;;;;;;;24.40;18.10;;;;;;;15.61;52.65;98943.23;1772416;79;21158;-44
2021/04/15 09:29:54;;;;;;;26.75;20.23;;;;;;;15.64;52.74;98942.42;1734954;81;21257;-44
2021/04/15 09:32:48;;;;;;;22.80;19.98;;;;;;;15.81;51.89;98935.26;1807007;78;22741;-44
2021/04/15 09:35:59;;;;;;;26.52;18.92;;;;;;;15.81;52.07;98929.20;1776140;80;20960;-44
2021/04/15 09:39:04;;;;;;;20.32;17.10;;;;;;;15.84;51.25;98932.48;1776149;80;22317;-44
2021/04/15 09:41:45;;;;;;;22.98;17.73;;;;;;;15.83;51.76;98924.09;1782038;79;21000;-44
2021/04/15 09:44:48;;;;;;;22.47;18.70;;;;;;;15.76;51.24;98924.17;1781844;79;21306;-44
2021/04/15 09:47:38;;;;;;;20.15;16.82;;;;;;;15.66;51.27;98926.41;1744896;81;21869;-43
2021/04/15 09:50:26;;;;;;;19.35;16.00;;;;;;;15.58;50.94;98930.39;1738568;82;21039;-43
2021/04/15 09:53:32;;;;;;;23.87;17.62;;;;;;;15.50;50.58;98920.65;1722126;82;22363;-43
2021/04/15 09:56:24;;;;;;;18.42;15.18;;;;;;;15.43;50.79;98924.81;1715395;80;21634;-43
2021/04/15 09:59:15;;;;;;;21.50;16.87;;;;;;;15.33;50.74;98918.25;1737466;82;21039;-43
2021/04/15 10:01:57;;;;;;;20.00;16.55;;;;;;;15.25;50.59;98920.08;1742587;82;21166;-43
2021/04/15 10:05:10;;;;;;;19.07;15.30;;;;;;;15.16;51.63;98915.05;1686080;82;21166;-43
2021/04/15 10:08:26;;;;;;;20.05;16.25;;;;;;;15.19;50.59;98915.05;1837826;77;24799;-43
2021/04/15 10:11:18;;;;;;;17.60;14.90;;;;;;;15.12;50.63;98915.66;1797688;79;20976;-43
2021/04/15 10:14:16;;;;;;;19.37;14.85;;;;;;;15.09;50.89;98914.52;1781513;79;21066;-43
2021/04/15 10:17:01;;;;;;;18.90;15.30;;;;;;;15.14;50.48;98907.86;1744877;80;21032;-42
2021/04/15 10:20:11;;;;;;;18.10;15.15;;;;;;;15.22;50.29;98907.98;1756162;81;21019;-43
2021/04/15 10:23:07;;;;;;;17.87;15.98;;;;;;;15.30;49.67;98899.92;1755194;80;21055;-43
2021/04/15 10:25:46;;;;;;;17.80;14.07;;;;;;;15.39;49.62;98903.59;1739120;82;21731;-42
2021/04/15 10:28:39;;;;;;;;;;;;;;;15.50;49.49;98899.57;1739389;82;21091;-42
2021/04/15 10:31:40;;;;;;;21.20;16.90;;;;;;;15.68;50.39;98900.83;1743368;82;20166;-42
2021/04/15 10:34:33;;;;;;;17.23;14.73;;;;;;;15.67;50.72;98897.13;1744154;82;21075;-42
2021/04/15 10:37:29;;;;;;;21.68;16.05;;;;;;;15.90;50.69;98893.97;1714611;82;21649;-42
2021/04/15 10:40:19;;;;;;;21.45;17.02;;;;;;;16.21;50.31;98900.88;1729812;81;21178;-43
2021/04/15 10:43:31;;;;;;;19.87;16.50;;;;;;;16.48;49.17;98898.98;1725364;83;21358;-43
2021/04/15 10:46:30;;;;;;;22.77;15.55;;;;;;;16.54;47.64;98897.35;1725141;83;21115;-43
2021/04/15 10:49:13;;;;;;;18.98;15.90;;;;;;;16.48;47.60;98903.09;1735039;81;21197;-42
2021/04/15 10:51:48;;;;;;;20.50;16.23;;;;;;;16.49;48.01;98908.75;1741690;81;21202;-44
2021/04/15 10:54:33;;;;;;;25.77;17.30;;;;;;;16.61;48.09;98904.70;1725375;83;21186;-43
2021/04/15 10:57:21;;;;;;;21.17;17.10;;;;;;;16.69;47.33;98901.49;1733226;81;21424;-44
2021/04/15 10:59:50;;;;;;;20.62;16.17;;;;;;;16.71;47.01;98899.69;1732517;81;21218;-44
2021/04/15 11:02:30;;;;;;;21.48;17.52;;;;;;;16.72;47.26;98900.66;1774463;80;21170;-44
2021/04/15 11:05:24;;;;;;;21.75;16.15;;;;;;;16.83;47.44;98897.19;1774507;80;21210;-44
2021/04/15 11:07:55;;;;;;;21.30;16.65;;;;;;;16.94;46.55;98881.98;1789782;78;21158;-44
2021/04/15 11:10:28;;;;;;;22.65;16.32;;;;;;;17.00;46.49;98886.38;1793675;79;21468;-43
2021/04/15 11:13:13;;;;;;;22.77;18.05;;;;;;;17.09;47.18;98886.05;1804367;79;21143;-44
2021/04/15 11:15:55;;;;;;;20.32;16.73;;;;;;;17.17;45.97;98883.98;1766035;80;21135;-44
2021/04/15 11:18:35;;;;;;;21.60;16.15;;;;;;;17.22;45.93;98885.67;1786216;79;21148;-44
2021/04/15 11:21:26;;;;;;;20.43;15.85;;;;;;;17.26;46.26;98882.27;1800373;79;21150;-45
2021/04/15 11:23:56;;;;;;;21.10;15.15;;;;;;;17.30;44.79;98881.62;1786100;79;21207;-44
2021/04/15 11:26:30;;;;;;;20.48;14.93;;;;;;;17.24;45.11;98878.38;1793951;79;20968;-45
2021/04/15 11:29:01;;;;;;;19.75;14.07;;;;;;;17.22;45.12;98882.15;1765109;80;21625;-45
2021/04/15 11:31:35;;;;;;;17.70;15.58;;;;;;;17.18;44.90;98874.59;1755957;80;21130;-45
2021/04/15 11:34:14;;;;;;;18.30;14.53;;;;;;;17.09;45.14;98872.34;1781048;80;21174;-45
2021/04/15 11:37:09;;;;;;;21.45;15.35;;;;;;;16.98;44.38;98877.83;1780693;80;22421;-45
2021/04/15 11:40:19;;;;;;;17.60;13.43;;;;;;;16.83;44.79;98879.39;1781052;80;21051;-44
2021/04/15 11:42:48;;;;;;;18.12;14.07;;;;;;;16.69;45.89;98865.91;1796575;79;21743;-44
2021/04/15 11:45:32;;;;;;;15.30;12.58;;;;;;;16.60;45.81;98868.97;1799094;79;21020;-45
2021/04/15 11:48:27;;;;;;;17.52;12.53;;;;;;;16.49;44.43;98867.70;1803680;79;21178;-45
2021/04/15 11:51:17;;;;;;;14.63;10.75;;;;;;;16.32;44.82;98870.83;1787228;79;21196;-44
2021/04/15 11:53:53;;;;;;;17.52;13.50;;;;;;;16.26;44.77;98866.24;1792363;79;21028;-44
2021/04/15 11:56:34;;;;;;;15.18;12.33;;;;;;;16.28;45.67;98862.48;1788612;79;21635;-45
2021/04/15 11:59:22;;;;;;;15.20;12.33;;;;;;;16.30;45.88;98865.02;1775351;79;21149;-44
2021/04/15 12:01:51;;;;;;;15.05;11.65;;;;;;;16.32;45.70;98852.27;1803609;79;21147;-44
2021/04/15 12:04:27;;;;;;;17.52;11.38;;;;;;;16.34;45.49;98858.13;1804520;79;21368;-45
2021/04/15 12:07:03;;;;;;;14.95;10.95;;;;;;;16.38;45.71;98861.59;1800675;79;21656;-44
2021/04/15 12:09:36;;;;;;;13.43;11.55;;;;;;;16.32;45.64;98860.48;1742151;81;21106;-44
2021/04/15 12:12:34;;;;;;;16.90;11.65;;;;;;;16.26;46.45;98862.14;1754619;81;21168;-45
2021/04/15 12:15:07;;;;;;;11.43;9.80;;;;;;;16.18;46.29;98877.06;1731592;82;21185;-45
2021/04/15 12:17:59;;;;;;;13.18;10.03;;;;;;;15.94;46.80;98891.19;1776098;79;21565;-45
2021/04/15 12:20:49;;;;;;;13.13;9.35;;;;;;;15.59;48.50;98885.47;1791839;79;21169;-45
2021/04/15 12:23:44;;;;;;;16.27;11.13;;;;;;;15.11;50.84;98895.77;1777793;79;21219;-44
2021/04/15 12:26:38;;;;;;;14.98;11.25;;;;;;;14.64;52.58;98896.45;1739038;81;21199;-44
2021/04/15 12:29:24;;;;;;;14.20;11.33;;;;;;;14.19;55.11;98900.29;1756585;81;21213;-45
2021/04/15 12:32:39;;;;;;;15.70;13.45;;;;;;;13.83;57.86;98907.78;1753115;81;21447;-44
2021/04/15 12:35:43;;;;;;;16.20;11.80;;;;;;;13.45;60.71;98903.94;1763473;81;21195;-44
2021/04/15 12:38:47;;;;;;;17.32;11.68;;;;;;;12.95;63.28;98899.56;1761443;81;21161;-44
2021/04/15 12:41:16;;;;;;;14.38;10.25;;;;;;;12.44;65.04;98895.73;1719551;82;21656;-44
2021/04/15 12:43:55;;;;;;;18.02;10.50;;;;;;;11.99;66.13;98897.84;1720916;82;21202;-44
2021/04/15 12:46:26;;;;;;;11.57;8.68;;;;;;;11.75;66.23;98881.61;1792334;79;21027;-44